createdAt,value
2022-09-06T00:00:02.910Z,0
2022-09-06T00:05:02.715Z,0
2022-09-06T00:10:03.217Z,0
2022-09-06T00:15:02.656Z,0
2022-09-06T00:20:02.670Z,0
2022-09-06T00:25:03.311Z,0
2022-09-06T00:30:09.300Z,0
2022-09-06T00:35:02.759Z,0
2022-09-06T00:40:02.865Z,0
2022-09-06T00:45:03.049Z,0
2022-09-06T00:50:03.002Z,0
2022-09-06T00:55:03.501Z,0
2022-09-06T01:00:03.046Z,0
2022-09-06T01:05:02.864Z,0
2022-09-06T01:10:03.668Z,0
2022-09-06T01:15:03.057Z,0
2022-09-06T01:20:02.709Z,0
2022-09-06T01:25:02.771Z,0
2022-09-06T01:30:03.486Z,0
2022-09-06T01:35:03.248Z,0
2022-09-06T01:40:02.571Z,0
2022-09-06T01:45:03.780Z,0
2022-09-06T01:50:03.557Z,0
2022-09-06T01:55:03.908Z,0
2022-09-06T02:00:03.304Z,0
2022-09-06T02:05:02.774Z,0
2022-09-06T02:10:03.269Z,0
2022-09-06T02:15:02.886Z,0
2022-09-06T02:20:03.535Z,0
2022-09-06T02:25:03.366Z,0
2022-09-06T02:30:03.219Z,0
2022-09-06T02:35:02.663Z,0
2022-09-06T02:40:03.154Z,0
2022-09-06T02:45:03.454Z,0
2022-09-06T02:50:02.883Z,0
2022-09-06T02:55:04.488Z,0
2022-09-06T03:00:02.993Z,0
2022-09-06T03:05:02.368Z,0
2022-09-06T03:10:02.628Z,0
2022-09-06T03:15:03.397Z,0
2022-09-06T03:20:02.964Z,0
2022-09-06T03:25:02.750Z,0
2022-09-06T03:30:02.686Z,0
2022-09-06T03:35:03.156Z,0
2022-09-06T03:40:03.225Z,0
2022-09-06T03:45:02.458Z,0
2022-09-06T03:50:03.331Z,0.11
2022-09-06T03:55:04.053Z,0.57
2022-09-06T04:00:03.320Z,1.7
2022-09-06T04:05:02.656Z,4.41
2022-09-06T04:10:03.315Z,11.21
2022-09-06T04:15:02.701Z,11.67
2022-09-06T04:20:02.848Z,28.33
2022-09-06T04:25:03.660Z,56.67
2022-09-06T04:30:03.431Z,100
2022-09-06T04:35:02.784Z,165
2022-09-06T04:40:02.949Z,240
2022-09-06T04:45:03.014Z,468.33
2022-09-06T04:50:02.403Z,608.33
2022-09-06T04:55:04.392Z,731.67
2022-09-06T05:00:02.672Z,955
2022-09-06T05:05:02.405Z,1211.67
2022-09-06T05:10:03.309Z,1315
2022-09-06T05:15:02.781Z,1461.67
2022-09-06T05:20:02.801Z,1623.33
2022-09-06T05:25:03.254Z,1631.67
2022-09-06T05:30:03.339Z,1741.67
2022-09-06T05:35:03.130Z,2080
2022-09-06T05:40:03.592Z,2458.33
2022-09-06T05:45:02.562Z,2720
2022-09-06T05:50:03.164Z,2955
2022-09-06T05:55:03.784Z,3111.67
2022-09-06T06:00:02.729Z,3401.67
2022-09-06T06:05:03.123Z,3106.67
2022-09-06T06:10:03.061Z,3066.67
2022-09-06T06:15:02.844Z,3058.33
2022-09-06T06:20:03.528Z,3073.33
2022-09-06T06:25:02.881Z,3255
2022-09-06T06:30:03.621Z,3411.67
2022-09-06T06:35:03.209Z,3755
2022-09-06T06:40:02.807Z,3900
2022-09-06T06:45:03.588Z,4103.33
2022-09-06T06:50:02.794Z,4778.33
2022-09-06T06:55:03.626Z,5008.33
2022-09-06T07:00:03.425Z,5205
2022-09-06T07:05:02.976Z,5315
2022-09-06T07:15:02.482Z,4760
2022-09-06T07:20:17.324Z,4683.33
2022-09-06T07:25:03.004Z,4806.67
2022-09-06T07:30:02.378Z,5915
2022-09-06T07:35:03.174Z,6550
2022-09-06T07:40:03.987Z,6141.67
2022-09-06T07:45:02.815Z,5286.67
2022-09-06T07:55:04.116Z,4968.33
2022-09-06T08:00:02.709Z,4788.33
2022-09-06T08:05:03.208Z,4778.33
2022-09-06T08:10:03.240Z,4876.67
2022-09-06T08:15:02.983Z,5093.33
2022-09-06T08:20:02.877Z,5363.33
2022-09-06T08:25:03.541Z,5685
2022-09-06T08:30:02.899Z,5876.67
2022-09-06T08:35:02.525Z,5648.33
2022-09-06T08:40:03.458Z,4526.67
2022-09-06T08:45:02.699Z,3996.67
2022-09-06T08:50:02.792Z,4298.33
2022-09-06T08:55:03.977Z,4618.33
2022-09-06T09:00:02.776Z,4203.33
2022-09-06T09:05:03.137Z,3953.33
2022-09-06T09:10:02.798Z,4198.33
2022-09-06T09:15:02.560Z,4841.67
2022-09-06T09:20:03.480Z,5245
2022-09-06T09:25:02.738Z,5936.67
2022-09-06T09:35:02.715Z,5213.33
2022-09-06T09:40:03.176Z,3863.33
2022-09-06T09:45:03.396Z,3713.33
2022-09-06T09:50:02.958Z,4196.67
2022-09-06T09:55:04.583Z,6758.33
2022-09-06T10:00:02.873Z,8431.67
2022-09-06T10:05:02.811Z,11908.33
2022-09-06T10:10:03.260Z,32403.33
2022-09-06T10:15:07.812Z,11703.33
2022-09-06T10:20:02.445Z,30413.33
2022-09-06T10:25:03.101Z,30103.33
2022-09-06T10:30:03.322Z,13418.33
2022-09-06T10:35:02.810Z,13556.67
2022-09-06T10:40:03.214Z,11486.67
2022-09-06T10:45:03.560Z,37563.33
2022-09-06T10:50:03.183Z,59413.67
2022-09-06T10:55:03.470Z,38643.33
2022-09-06T11:00:03.216Z,41986.67
2022-09-06T11:10:02.984Z,47190
2022-09-06T11:15:02.581Z,27513.33
2022-09-06T11:20:02.648Z,11086.67
2022-09-06T11:25:03.437Z,8510
2022-09-06T11:30:03.126Z,7971.67
2022-09-06T11:35:02.418Z,9198.33
2022-09-06T11:40:30.846Z,27693.33
2022-09-06T11:45:03.185Z,27316.67
2022-09-06T11:50:02.407Z,9366.67
2022-09-06T11:55:04.127Z,5525
2022-09-06T12:00:02.549Z,4230
2022-09-06T12:05:03.512Z,3510
2022-09-06T12:10:02.989Z,3288.33
2022-09-06T12:15:02.713Z,3858.33
2022-09-06T12:20:02.762Z,5181.67
2022-09-06T12:25:03.131Z,5443.33
2022-09-06T12:30:03.127Z,4335
2022-09-06T12:40:02.910Z,3721.67
2022-09-06T12:45:03.038Z,3413.33
2022-09-06T12:50:03.403Z,3361.67
2022-09-06T12:55:03.798Z,3493.33
2022-09-06T13:00:02.676Z,3331.67
2022-09-06T13:05:03.163Z,2900
2022-09-06T13:10:02.791Z,2531.67
2022-09-06T13:15:03.289Z,2796.67
2022-09-06T13:20:03.146Z,3580
2022-09-06T13:25:03.110Z,5063.33
2022-09-06T13:30:02.657Z,5866.67
2022-09-06T13:35:03.377Z,7666.67
2022-09-06T13:40:03.403Z,34070
2022-09-06T13:45:02.895Z,41476.67
2022-09-06T13:50:03.071Z,38646.67
2022-09-06T13:55:03.688Z,8748.33
2022-09-06T14:00:03.259Z,8598.33
2022-09-06T14:05:03.245Z,6541.67
2022-09-06T14:10:02.636Z,6433.33
2022-09-06T14:15:03.296Z,7586.67
2022-09-06T14:20:02.787Z,8628.33
2022-09-06T14:25:02.647Z,8645
2022-09-06T14:30:03.338Z,9645
2022-09-06T14:35:02.587Z,7208.33
2022-09-06T14:40:03.352Z,6430
2022-09-06T14:45:02.918Z,5873.33
2022-09-06T14:50:02.715Z,5285
2022-09-06T14:55:04.718Z,5871.67
2022-09-06T15:00:02.917Z,6318.33
2022-09-06T15:05:02.987Z,5625
2022-09-06T15:10:02.353Z,5705
2022-09-06T15:15:03.048Z,8723.33
2022-09-06T15:20:02.507Z,8700
2022-09-06T15:25:03.074Z,7001.67
2022-09-06T15:30:02.647Z,4876.67
2022-09-06T15:35:05.328Z,5890
2022-09-06T15:40:03.514Z,6213.33
2022-09-06T15:45:02.599Z,5980
2022-09-06T15:50:02.998Z,5386.67
2022-09-06T15:55:03.722Z,5315
2022-09-06T16:00:03.403Z,4386.67
2022-09-06T16:05:02.710Z,3426.67
2022-09-06T16:10:02.677Z,3095
2022-09-06T16:15:03.301Z,4038.33
2022-09-06T16:20:02.918Z,3781.67
2022-09-06T16:25:03.300Z,2915
2022-09-06T16:30:03.346Z,2520
2022-09-06T16:35:03.493Z,2158.33
2022-09-06T16:40:03.732Z,1948.33
2022-09-06T16:45:02.775Z,1833.33
2022-09-06T16:50:02.493Z,1661.67
2022-09-06T16:55:04.073Z,1495
2022-09-06T17:00:02.705Z,1340
2022-09-06T17:05:02.607Z,1165
2022-09-06T17:10:03.267Z,1010
2022-09-06T17:15:02.636Z,860
2022-09-06T17:20:03.293Z,736.67
2022-09-06T17:25:02.896Z,478.33
2022-09-06T17:30:02.683Z,363.33
2022-09-06T17:35:02.988Z,238.33
2022-09-06T17:40:03.229Z,163.33
2022-09-06T17:45:02.789Z,103.33
2022-09-06T17:50:02.360Z,63.33
2022-09-06T17:55:03.961Z,35
2022-09-06T18:00:02.456Z,16.67
2022-09-06T18:05:03.702Z,6.67
2022-09-06T18:10:02.781Z,6.68
2022-09-06T18:15:02.433Z,2.83
2022-09-06T18:20:03.356Z,1.13
2022-09-06T18:25:03.013Z,0.34
2022-09-06T18:30:03.259Z,0
2022-09-06T18:35:02.937Z,0
2022-09-06T18:40:03.344Z,0
2022-09-06T18:45:03.091Z,0
2022-09-06T18:50:02.488Z,0
2022-09-06T18:55:04.298Z,0
2022-09-06T19:00:02.764Z,0
2022-09-06T19:05:02.755Z,0
2022-09-06T19:10:03.398Z,0
2022-09-06T19:15:02.911Z,0
2022-09-06T19:20:03.277Z,0
2022-09-06T19:25:03.059Z,0
2022-09-06T19:30:02.527Z,0
2022-09-06T19:35:03.511Z,0
2022-09-06T19:40:03.120Z,0
2022-09-06T19:45:02.944Z,0
2022-09-06T19:50:03.253Z,0
2022-09-06T19:55:04.028Z,0
2022-09-06T20:00:03.385Z,0
2022-09-06T20:05:02.602Z,0
2022-09-06T20:10:02.615Z,0
2022-09-06T20:15:03.412Z,0
2022-09-06T20:20:02.997Z,0
2022-09-06T20:25:02.317Z,0
2022-09-06T20:30:03.021Z,0
2022-09-06T20:35:02.450Z,0
2022-09-06T20:40:03.914Z,0
2022-09-06T20:45:03.266Z,0
2022-09-06T20:50:02.770Z,0
2022-09-06T20:55:04.417Z,0
2022-09-06T21:00:02.631Z,0
2022-09-06T21:05:03.009Z,0
2022-09-06T21:10:02.981Z,0
2022-09-06T21:15:02.467Z,0
2022-09-06T21:20:02.664Z,0
2022-09-06T21:25:03.098Z,0
2022-09-06T21:30:02.723Z,0
2022-09-06T21:35:03.019Z,0
2022-09-06T21:40:03.452Z,0
2022-09-06T21:45:02.435Z,0
2022-09-06T21:50:03.321Z,0
2022-09-06T21:55:03.641Z,0
2022-09-06T22:00:03.901Z,0
2022-09-06T22:05:02.802Z,0
2022-09-06T22:10:02.675Z,0
2022-09-06T22:15:03.214Z,0
2022-09-06T22:20:02.721Z,0
2022-09-06T22:25:02.528Z,0
2022-09-06T22:30:02.881Z,0
2022-09-06T22:35:02.777Z,0
2022-09-06T22:40:03.814Z,0
2022-09-06T22:45:03.394Z,0
2022-09-06T22:50:02.560Z,0
2022-09-06T22:55:04.222Z,0
2022-09-06T23:00:03.131Z,0
2022-09-06T23:05:03.003Z,0
2022-09-06T23:10:02.470Z,0
2022-09-06T23:15:03.118Z,0
2022-09-06T23:20:02.803Z,0
2022-09-06T23:25:02.594Z,0
2022-09-06T23:30:03.354Z,0
2022-09-06T23:35:02.631Z,0
2022-09-06T23:40:09.551Z,0
2022-09-06T23:45:02.754Z,0
2022-09-06T23:50:02.795Z,0
2022-09-06T23:55:03.506Z,0
